sensor_id;sensor_type;location;lat;lon;timestamp;P1;durP1;ratioP1;P2;durP2;ratioP2
23990;SDS011;12205;50.600;4.608;2023-08-07T00:02:14;5.30;;;0.68;;
23990;SDS011;12205;50.600;4.608;2023-08-07T00:04:41;7.65;;;0.95;;
23990;SDS011;12205;50.600;4.608;2023-08-07T00:07:08;8.90;;;0.90;;
23990;SDS011;12205;50.600;4.608;2023-08-07T00:09:35;6.63;;;0.80;;
23990;SDS011;12205;50.600;4.608;2023-08-07T00:12:03;8.80;;;1.30;;
23990;SDS011;12205;50.600;4.608;2023-08-07T00:14:30;7.72;;;0.77;;
23990;SDS011;12205;50.600;4.608;2023-08-07T00:16:58;10.40;;;1.10;;
23990;SDS011;12205;50.600;4.608;2023-08-07T00:19:26;7.43;;;1.13;;
23990;SDS011;12205;50.600;4.608;2023-08-07T00:21:54;10.05;;;1.00;;
23990;SDS011;12205;50.600;4.608;2023-08-07T00:24:21;5.35;;;0.80;;
23990;SDS011;12205;50.600;4.608;2023-08-07T00:26:48;10.27;;;1.10;;
23990;SDS011;12205;50.600;4.608;2023-08-07T00:29:15;9.20;;;0.82;;
23990;SDS011;12205;50.600;4.608;2023-08-07T00:31:42;10.50;;;1.08;;
23990;SDS011;12205;50.600;4.608;2023-08-07T00:34:09;4.60;;;0.60;;
23990;SDS011;12205;50.600;4.608;2023-08-07T00:36:38;8.65;;;0.82;;
23990;SDS011;12205;50.600;4.608;2023-08-07T00:39:05;10.10;;;0.77;;
23990;SDS011;12205;50.600;4.608;2023-08-07T00:41:38;11.27;;;1.23;;
23990;SDS011;12205;50.600;4.608;2023-08-07T00:44:05;10.35;;;0.90;;
23990;SDS011;12205;50.600;4.608;2023-08-07T00:46:34;3.28;;;0.60;;
23990;SDS011;12205;50.600;4.608;2023-08-07T00:49:04;8.23;;;0.80;;
23990;SDS011;12205;50.600;4.608;2023-08-07T00:51:32;11.23;;;1.00;;
23990;SDS011;12205;50.600;4.608;2023-08-07T00:54:01;6.25;;;0.90;;
23990;SDS011;12205;50.600;4.608;2023-08-07T00:56:31;5.63;;;0.70;;
23990;SDS011;12205;50.600;4.608;2023-08-07T00:58:59;8.50;;;0.80;;
23990;SDS011;12205;50.600;4.608;2023-08-07T01:01:27;5.22;;;1.17;;
23990;SDS011;12205;50.600;4.608;2023-08-07T01:03:54;8.23;;;1.00;;
23990;SDS011;12205;50.600;4.608;2023-08-07T01:06:21;5.07;;;0.90;;
23990;SDS011;12205;50.600;4.608;2023-08-07T01:08:48;9.10;;;0.90;;
23990;SDS011;12205;50.600;4.608;2023-08-07T01:11:21;7.53;;;0.90;;
23990;SDS011;12205;50.600;4.608;2023-08-07T01:14:00;9.02;;;1.00;;
23990;SDS011;12205;50.600;4.608;2023-08-07T01:16:37;9.35;;;0.90;;
23990;SDS011;12205;50.600;4.608;2023-08-07T01:19:13;6.82;;;1.00;;
23990;SDS011;12205;50.600;4.608;2023-08-07T01:21:54;6.18;;;0.80;;
23990;SDS011;12205;50.600;4.608;2023-08-07T01:24:31;4.78;;;0.80;;
23990;SDS011;12205;50.600;4.608;2023-08-07T01:27:00;8.25;;;1.08;;
23990;SDS011;12205;50.600;4.608;2023-08-07T01:29:42;8.85;;;0.93;;
23990;SDS011;12205;50.600;4.608;2023-08-07T01:32:20;6.43;;;0.95;;
23990;SDS011;12205;50.600;4.608;2023-08-07T01:34:55;4.38;;;0.77;;
23990;SDS011;12205;50.600;4.608;2023-08-07T01:37:24;4.80;;;0.70;;
23990;SDS011;12205;50.600;4.608;2023-08-07T01:39:57;5.22;;;0.70;;
23990;SDS011;12205;50.600;4.608;2023-08-07T01:42:26;4.60;;;0.80;;
23990;SDS011;12205;50.600;4.608;2023-08-07T01:44:54;6.22;;;0.90;;
23990;SDS011;12205;50.600;4.608;2023-08-07T01:47:21;5.57;;;0.80;;
23990;SDS011;12205;50.600;4.608;2023-08-07T01:49:48;3.47;;;0.70;;
23990;SDS011;12205;50.600;4.608;2023-08-07T01:52:15;6.85;;;0.80;;
23990;SDS011;12205;50.600;4.608;2023-08-07T01:54:43;9.18;;;1.25;;
23990;SDS011;12205;50.600;4.608;2023-08-07T01:57:10;7.97;;;1.00;;
23990;SDS011;12205;50.600;4.608;2023-08-07T01:59:38;8.30;;;0.95;;
23990;SDS011;12205;50.600;4.608;2023-08-07T02:02:05;7.95;;;1.08;;
23990;SDS011;12205;50.600;4.608;2023-08-07T02:04:32;5.47;;;0.80;;
23990;SDS011;12205;50.600;4.608;2023-08-07T02:06:59;7.13;;;0.70;;
23990;SDS011;12205;50.600;4.608;2023-08-07T02:09:26;8.10;;;0.90;;
23990;SDS011;12205;50.600;4.608;2023-08-07T02:11:55;7.32;;;0.93;;
23990;SDS011;12205;50.600;4.608;2023-08-07T02:14:22;7.95;;;0.88;;
23990;SDS011;12205;50.600;4.608;2023-08-07T02:16:49;3.60;;;0.77;;
23990;SDS011;12205;50.600;4.608;2023-08-07T02:19:16;3.60;;;0.90;;
23990;SDS011;12205;50.600;4.608;2023-08-07T02:21:43;5.75;;;0.70;;
23990;SDS011;12205;50.600;4.608;2023-08-07T02:24:10;7.93;;;0.82;;
23990;SDS011;12205;50.600;4.608;2023-08-07T02:26:38;10.50;;;1.00;;
23990;SDS011;12205;50.600;4.608;2023-08-07T02:29:07;5.43;;;0.68;;
23990;SDS011;12205;50.600;4.608;2023-08-07T02:31:34;8.15;;;0.70;;
23990;SDS011;12205;50.600;4.608;2023-08-07T02:34:01;9.88;;;1.02;;
23990;SDS011;12205;50.600;4.608;2023-08-07T02:36:29;6.13;;;0.77;;
23990;SDS011;12205;50.600;4.608;2023-08-07T02:38:57;7.55;;;1.05;;
23990;SDS011;12205;50.600;4.608;2023-08-07T02:41:24;4.30;;;0.65;;
23990;SDS011;12205;50.600;4.608;2023-08-07T02:43:51;4.32;;;0.70;;
23990;SDS011;12205;50.600;4.608;2023-08-07T02:46:19;7.65;;;0.85;;
23990;SDS011;12205;50.600;4.608;2023-08-07T02:48:46;10.23;;;2.10;;
23990;SDS011;12205;50.600;4.608;2023-08-07T02:51:13;8.18;;;0.98;;
23990;SDS011;12205;50.600;4.608;2023-08-07T02:53:40;3.63;;;0.80;;
23990;SDS011;12205;50.600;4.608;2023-08-07T02:56:07;9.68;;;1.35;;
23990;SDS011;12205;50.600;4.608;2023-08-07T02:58:35;9.63;;;1.00;;
23990;SDS011;12205;50.600;4.608;2023-08-07T03:01:03;6.78;;;0.88;;
23990;SDS011;12205;50.600;4.608;2023-08-07T03:03:32;7.60;;;1.13;;
23990;SDS011;12205;50.600;4.608;2023-08-07T03:06:00;5.25;;;0.85;;
23990;SDS011;12205;50.600;4.608;2023-08-07T03:08:27;10.57;;;0.90;;
23990;SDS011;12205;50.600;4.608;2023-08-07T03:10:55;9.25;;;1.10;;
23990;SDS011;12205;50.600;4.608;2023-08-07T03:13:24;5.40;;;0.80;;
23990;SDS011;12205;50.600;4.608;2023-08-07T03:15:58;7.57;;;0.90;;
23990;SDS011;12205;50.600;4.608;2023-08-07T03:18:26;3.70;;;0.65;;
23990;SDS011;12205;50.600;4.608;2023-08-07T03:20:54;6.57;;;0.82;;
23990;SDS011;12205;50.600;4.608;2023-08-07T03:23:22;7.55;;;1.05;;
23990;SDS011;12205;50.600;4.608;2023-08-07T03:26:00;13.57;;;1.73;;
23990;SDS011;12205;50.600;4.608;2023-08-07T03:28:29;6.10;;;0.80;;
23990;SDS011;12205;50.600;4.608;2023-08-07T03:30:56;8.13;;;0.93;;
23990;SDS011;12205;50.600;4.608;2023-08-07T03:33:23;5.25;;;0.85;;
23990;SDS011;12205;50.600;4.608;2023-08-07T03:35:51;4.47;;;0.60;;
23990;SDS011;12205;50.600;4.608;2023-08-07T03:38:20;6.97;;;1.20;;
23990;SDS011;12205;50.600;4.608;2023-08-07T03:40:50;6.20;;;0.90;;
23990;SDS011;12205;50.600;4.608;2023-08-07T03:43:17;4.80;;;0.70;;
23990;SDS011;12205;50.600;4.608;2023-08-07T03:45:45;6.07;;;0.80;;
23990;SDS011;12205;50.600;4.608;2023-08-07T03:48:13;3.88;;;0.70;;
23990;SDS011;12205;50.600;4.608;2023-08-07T03:50:40;7.93;;;0.70;;
23990;SDS011;12205;50.600;4.608;2023-08-07T03:53:07;4.75;;;0.90;;
23990;SDS011;12205;50.600;4.608;2023-08-07T03:55:42;6.38;;;0.65;;
23990;SDS011;12205;50.600;4.608;2023-08-07T03:58:11;2.43;;;0.70;;
23990;SDS011;12205;50.600;4.608;2023-08-07T04:00:38;5.72;;;0.90;;
23990;SDS011;12205;50.600;4.608;2023-08-07T04:03:05;5.90;;;0.80;;
23990;SDS011;12205;50.600;4.608;2023-08-07T04:05:32;6.88;;;1.10;;
23990;SDS011;12205;50.600;4.608;2023-08-07T04:08:00;5.70;;;0.70;;
23990;SDS011;12205;50.600;4.608;2023-08-07T04:10:27;9.70;;;0.90;;
23990;SDS011;12205;50.600;4.608;2023-08-07T04:12:55;5.85;;;0.88;;
23990;SDS011;12205;50.600;4.608;2023-08-07T04:15:23;4.35;;;0.80;;
23990;SDS011;12205;50.600;4.608;2023-08-07T04:17:50;8.02;;;1.00;;
23990;SDS011;12205;50.600;4.608;2023-08-07T04:20:17;4.68;;;0.80;;
23990;SDS011;12205;50.600;4.608;2023-08-07T04:22:45;7.35;;;0.90;;
23990;SDS011;12205;50.600;4.608;2023-08-07T04:25:12;5.05;;;0.90;;
23990;SDS011;12205;50.600;4.608;2023-08-07T04:27:39;5.03;;;0.93;;
23990;SDS011;12205;50.600;4.608;2023-08-07T04:30:09;5.50;;;1.45;;
23990;SDS011;12205;50.600;4.608;2023-08-07T04:32:37;7.73;;;0.87;;
23990;SDS011;12205;50.600;4.608;2023-08-07T04:35:05;8.88;;;0.85;;
23990;SDS011;12205;50.600;4.608;2023-08-07T04:37:33;6.38;;;0.90;;
23990;SDS011;12205;50.600;4.608;2023-08-07T04:40:00;3.78;;;0.73;;
23990;SDS011;12205;50.600;4.608;2023-08-07T04:42:27;2.30;;;0.43;;
23990;SDS011;12205;50.600;4.608;2023-08-07T04:44:55;10.90;;;0.90;;
23990;SDS011;12205;50.600;4.608;2023-08-07T04:47:23;9.15;;;0.70;;
23990;SDS011;12205;50.600;4.608;2023-08-07T04:49:50;5.85;;;0.80;;
23990;SDS011;12205;50.600;4.608;2023-08-07T04:52:17;2.95;;;0.70;;
23990;SDS011;12205;50.600;4.608;2023-08-07T04:54:44;4.68;;;0.80;;
23990;SDS011;12205;50.600;4.608;2023-08-07T04:57:12;8.68;;;1.17;;
23990;SDS011;12205;50.600;4.608;2023-08-07T04:59:39;4.57;;;1.02;;
23990;SDS011;12205;50.600;4.608;2023-08-07T05:02:06;5.20;;;1.10;;
23990;SDS011;12205;50.600;4.608;2023-08-07T05:04:34;3.72;;;0.73;;
23990;SDS011;12205;50.600;4.608;2023-08-07T05:07:02;7.97;;;1.45;;
23990;SDS011;12205;50.600;4.608;2023-08-07T05:09:29;6.80;;;0.90;;
23990;SDS011;12205;50.600;4.608;2023-08-07T05:11:56;11.70;;;0.80;;
23990;SDS011;12205;50.600;4.608;2023-08-07T05:14:23;5.75;;;1.10;;
23990;SDS011;12205;50.600;4.608;2023-08-07T05:16:50;10.05;;;1.25;;
23990;SDS011;12205;50.600;4.608;2023-08-07T05:19:18;8.27;;;0.90;;
23990;SDS011;12205;50.600;4.608;2023-08-07T05:21:46;8.48;;;1.05;;
23990;SDS011;12205;50.600;4.608;2023-08-07T05:24:15;8.80;;;1.00;;
23990;SDS011;12205;50.600;4.608;2023-08-07T05:26:42;12.18;;;1.20;;
23990;SDS011;12205;50.600;4.608;2023-08-07T05:29:09;7.47;;;1.00;;
23990;SDS011;12205;50.600;4.608;2023-08-07T05:31:36;11.98;;;1.33;;
23990;SDS011;12205;50.600;4.608;2023-08-07T05:34:03;6.93;;;1.00;;
23990;SDS011;12205;50.600;4.608;2023-08-07T05:36:31;9.20;;;1.13;;
23990;SDS011;12205;50.600;4.608;2023-08-07T05:39:00;5.30;;;0.90;;
23990;SDS011;12205;50.600;4.608;2023-08-07T05:41:27;9.25;;;1.15;;
23990;SDS011;12205;50.600;4.608;2023-08-07T05:43:54;8.70;;;0.93;;
23990;SDS011;12205;50.600;4.608;2023-08-07T05:46:21;7.05;;;0.88;;
23990;SDS011;12205;50.600;4.608;2023-08-07T05:48:48;4.07;;;0.68;;
23990;SDS011;12205;50.600;4.608;2023-08-07T05:51:15;4.30;;;0.73;;
23990;SDS011;12205;50.600;4.608;2023-08-07T05:53:42;4.18;;;1.02;;
23990;SDS011;12205;50.600;4.608;2023-08-07T05:56:10;7.28;;;0.85;;
23990;SDS011;12205;50.600;4.608;2023-08-07T05:58:37;7.75;;;0.90;;
23990;SDS011;12205;50.600;4.608;2023-08-07T06:01:05;7.20;;;1.05;;
23990;SDS011;12205;50.600;4.608;2023-08-07T06:03:32;14.88;;;1.40;;
23990;SDS011;12205;50.600;4.608;2023-08-07T06:05:59;4.72;;;0.90;;
23990;SDS011;12205;50.600;4.608;2023-08-07T06:08:26;7.80;;;1.25;;
23990;SDS011;12205;50.600;4.608;2023-08-07T06:10:54;5.15;;;0.82;;
23990;SDS011;12205;50.600;4.608;2023-08-07T06:13:22;9.65;;;1.17;;
23990;SDS011;12205;50.600;4.608;2023-08-07T06:15:49;8.30;;;1.10;;
23990;SDS011;12205;50.600;4.608;2023-08-07T06:18:16;6.43;;;0.80;;
23990;SDS011;12205;50.600;4.608;2023-08-07T06:20:43;7.47;;;0.80;;
23990;SDS011;12205;50.600;4.608;2023-08-07T06:23:11;7.28;;;1.15;;
23990;SDS011;12205;50.600;4.608;2023-08-07T06:25:38;6.10;;;1.05;;
23990;SDS011;12205;50.600;4.608;2023-08-07T06:28:05;9.27;;;0.95;;
23990;SDS011;12205;50.600;4.608;2023-08-07T06:30:34;8.75;;;1.13;;
23990;SDS011;12205;50.600;4.608;2023-08-07T06:33:01;7.68;;;1.27;;
23990;SDS011;12205;50.600;4.608;2023-08-07T06:35:28;5.38;;;1.13;;
23990;SDS011;12205;50.600;4.608;2023-08-07T06:37:55;4.82;;;1.00;;
23990;SDS011;12205;50.600;4.608;2023-08-07T06:40:22;4.10;;;0.80;;
23990;SDS011;12205;50.600;4.608;2023-08-07T06:42:49;5.20;;;0.90;;
23990;SDS011;12205;50.600;4.608;2023-08-07T06:45:16;10.15;;;1.42;;
23990;SDS011;12205;50.600;4.608;2023-08-07T06:47:45;6.70;;;1.15;;
23990;SDS011;12205;50.600;4.608;2023-08-07T06:50:13;10.80;;;1.35;;
23990;SDS011;12205;50.600;4.608;2023-08-07T06:52:40;8.10;;;0.98;;
23990;SDS011;12205;50.600;4.608;2023-08-07T06:55:07;6.35;;;0.95;;
23990;SDS011;12205;50.600;4.608;2023-08-07T06:57:35;7.68;;;1.33;;
23990;SDS011;12205;50.600;4.608;2023-08-07T07:00:02;6.75;;;1.17;;
23990;SDS011;12205;50.600;4.608;2023-08-07T07:02:30;16.95;;;1.98;;
23990;SDS011;12205;50.600;4.608;2023-08-07T07:04:59;7.85;;;1.05;;
23990;SDS011;12205;50.600;4.608;2023-08-07T07:07:26;7.53;;;1.08;;
23990;SDS011;12205;50.600;4.608;2023-08-07T07:09:53;5.95;;;0.93;;
23990;SDS011;12205;50.600;4.608;2023-08-07T07:12:20;7.43;;;0.80;;
23990;SDS011;12205;50.600;4.608;2023-08-07T07:14:47;11.80;;;1.15;;
23990;SDS011;12205;50.600;4.608;2023-08-07T07:17:14;8.18;;;1.38;;
23990;SDS011;12205;50.600;4.608;2023-08-07T07:19:41;7.28;;;1.05;;
23990;SDS011;12205;50.600;4.608;2023-08-07T07:22:10;7.20;;;0.90;;
23990;SDS011;12205;50.600;4.608;2023-08-07T07:24:37;6.35;;;0.88;;
23990;SDS011;12205;50.600;4.608;2023-08-07T07:27:04;7.15;;;0.90;;
23990;SDS011;12205;50.600;4.608;2023-08-07T07:29:32;11.65;;;1.00;;
23990;SDS011;12205;50.600;4.608;2023-08-07T07:31:59;4.57;;;0.90;;
23990;SDS011;12205;50.600;4.608;2023-08-07T07:34:26;8.52;;;1.10;;
23990;SDS011;12205;50.600;4.608;2023-08-07T07:36:53;8.15;;;1.10;;
23990;SDS011;12205;50.600;4.608;2023-08-07T07:39:22;9.02;;;0.93;;
23990;SDS011;12205;50.600;4.608;2023-08-07T07:41:49;10.70;;;1.05;;
23990;SDS011;12205;50.600;4.608;2023-08-07T07:44:16;6.30;;;0.77;;
23990;SDS011;12205;50.600;4.608;2023-08-07T07:46:43;8.15;;;0.73;;
23990;SDS011;12205;50.600;4.608;2023-08-07T07:49:10;9.45;;;1.08;;
23990;SDS011;12205;50.600;4.608;2023-08-07T07:51:37;10.30;;;1.02;;
23990;SDS011;12205;50.600;4.608;2023-08-07T07:54:05;3.60;;;0.70;;
23990;SDS011;12205;50.600;4.608;2023-08-07T07:56:34;4.05;;;0.63;;
23990;SDS011;12205;50.600;4.608;2023-08-07T07:59:01;6.07;;;0.73;;
23990;SDS011;12205;50.600;4.608;2023-08-07T08:01:28;11.32;;;1.10;;
23990;SDS011;12205;50.600;4.608;2023-08-07T08:03:55;9.45;;;0.80;;
23990;SDS011;12205;50.600;4.608;2023-08-07T08:06:22;3.53;;;0.60;;
23990;SDS011;12205;50.600;4.608;2023-08-07T08:08:49;3.63;;;0.60;;
23990;SDS011;12205;50.600;4.608;2023-08-07T08:11:16;3.80;;;0.70;;
23990;SDS011;12205;50.600;4.608;2023-08-07T08:13:45;5.88;;;0.77;;
23990;SDS011;12205;50.600;4.608;2023-08-07T08:16:12;2.75;;;0.55;;
23990;SDS011;12205;50.600;4.608;2023-08-07T08:18:40;3.72;;;0.60;;
23990;SDS011;12205;50.600;4.608;2023-08-07T08:21:07;3.05;;;0.45;;
23990;SDS011;12205;50.600;4.608;2023-08-07T08:23:34;3.05;;;0.68;;
23990;SDS011;12205;50.600;4.608;2023-08-07T08:26:01;4.82;;;0.47;;
23990;SDS011;12205;50.600;4.608;2023-08-07T08:28:28;4.05;;;0.80;;
23990;SDS011;12205;50.600;4.608;2023-08-07T08:30:57;7.82;;;0.60;;
23990;SDS011;12205;50.600;4.608;2023-08-07T08:33:24;3.90;;;0.50;;
23990;SDS011;12205;50.600;4.608;2023-08-07T08:35:51;8.32;;;1.00;;
23990;SDS011;12205;50.600;4.608;2023-08-07T08:38:18;2.35;;;0.40;;
23990;SDS011;12205;50.600;4.608;2023-08-07T08:40:47;2.28;;;0.63;;
23990;SDS011;12205;50.600;4.608;2023-08-07T08:45:46;6.25;;;0.82;;
23990;SDS011;12205;50.600;4.608;2023-08-07T08:48:16;3.00;;;0.57;;
23990;SDS011;12205;50.600;4.608;2023-08-07T08:50:49;5.88;;;0.50;;
23990;SDS011;12205;50.600;4.608;2023-08-07T08:53:16;3.75;;;0.60;;
23990;SDS011;12205;50.600;4.608;2023-08-07T08:55:45;4.82;;;0.60;;
23990;SDS011;12205;50.600;4.608;2023-08-07T08:58:13;5.65;;;0.73;;
23990;SDS011;12205;50.600;4.608;2023-08-07T09:00:42;3.53;;;0.70;;
23990;SDS011;12205;50.600;4.608;2023-08-07T09:03:10;3.58;;;0.60;;
23990;SDS011;12205;50.600;4.608;2023-08-07T09:05:39;7.95;;;0.70;;
23990;SDS011;12205;50.600;4.608;2023-08-07T09:08:08;2.05;;;0.30;;
23990;SDS011;12205;50.600;4.608;2023-08-07T09:10:36;3.60;;;0.60;;
23990;SDS011;12205;50.600;4.608;2023-08-07T09:13:04;3.58;;;0.50;;
23990;SDS011;12205;50.600;4.608;2023-08-07T09:15:43;5.90;;;0.57;;
23990;SDS011;12205;50.600;4.608;2023-08-07T09:18:15;3.28;;;0.57;;
23990;SDS011;12205;50.600;4.608;2023-08-07T09:20:45;2.15;;;0.40;;
23990;SDS011;12205;50.600;4.608;2023-08-07T09:23:14;2.70;;;0.50;;
23990;SDS011;12205;50.600;4.608;2023-08-07T09:25:42;4.90;;;0.43;;
23990;SDS011;12205;50.600;4.608;2023-08-07T09:28:10;4.63;;;0.38;;
23990;SDS011;12205;50.600;4.608;2023-08-07T09:30:38;7.38;;;0.70;;
23990;SDS011;12205;50.600;4.608;2023-08-07T09:33:09;5.38;;;0.60;;
23990;SDS011;12205;50.600;4.608;2023-08-07T09:35:36;4.18;;;0.50;;
23990;SDS011;12205;50.600;4.608;2023-08-07T09:38:04;3.63;;;0.60;;
23990;SDS011;12205;50.600;4.608;2023-08-07T09:40:33;2.50;;;0.50;;
23990;SDS011;12205;50.600;4.608;2023-08-07T09:43:00;2.92;;;0.57;;
23990;SDS011;12205;50.600;4.608;2023-08-07T09:45:28;2.95;;;0.45;;
23990;SDS011;12205;50.600;4.608;2023-08-07T09:47:57;1.48;;;0.40;;
23990;SDS011;12205;50.600;4.608;2023-08-07T09:50:25;3.58;;;0.70;;
23990;SDS011;12205;50.600;4.608;2023-08-07T09:52:53;3.40;;;0.60;;
23990;SDS011;12205;50.600;4.608;2023-08-07T09:55:24;3.55;;;0.68;;
23990;SDS011;12205;50.600;4.608;2023-08-07T09:57:51;2.85;;;0.77;;
23990;SDS011;12205;50.600;4.608;2023-08-07T10:00:20;1.63;;;0.47;;
23990;SDS011;12205;50.600;4.608;2023-08-07T10:02:48;1.63;;;0.25;;
23990;SDS011;12205;50.600;4.608;2023-08-07T10:05:16;4.97;;;0.50;;
23990;SDS011;12205;50.600;4.608;2023-08-07T10:07:44;1.85;;;0.30;;
23990;SDS011;12205;50.600;4.608;2023-08-07T10:10:13;7.88;;;0.57;;
23990;SDS011;12205;50.600;4.608;2023-08-07T10:12:43;2.28;;;0.45;;
23990;SDS011;12205;50.600;4.608;2023-08-07T10:15:13;3.10;;;0.40;;
23990;SDS011;12205;50.600;4.608;2023-08-07T10:17:41;3.80;;;0.55;;
23990;SDS011;12205;50.600;4.608;2023-08-07T10:20:09;3.72;;;0.55;;
23990;SDS011;12205;50.600;4.608;2023-08-07T10:22:38;2.42;;;0.50;;
23990;SDS011;12205;50.600;4.608;2023-08-07T10:25:07;2.55;;;0.50;;
23990;SDS011;12205;50.600;4.608;2023-08-07T10:27:36;6.20;;;0.60;;
23990;SDS011;12205;50.600;4.608;2023-08-07T10:30:09;2.50;;;0.40;;
23990;SDS011;12205;50.600;4.608;2023-08-07T10:32:40;4.28;;;0.55;;
23990;SDS011;12205;50.600;4.608;2023-08-07T10:35:09;2.42;;;0.60;;
23990;SDS011;12205;50.600;4.608;2023-08-07T10:37:39;4.22;;;0.50;;
23990;SDS011;12205;50.600;4.608;2023-08-07T10:40:09;3.25;;;0.60;;
23990;SDS011;12205;50.600;4.608;2023-08-07T10:42:51;3.67;;;0.50;;
23990;SDS011;12205;50.600;4.608;2023-08-07T10:45:23;3.00;;;0.40;;
23990;SDS011;12205;50.600;4.608;2023-08-07T10:48:01;2.58;;;0.40;;
23990;SDS011;12205;50.600;4.608;2023-08-07T10:50:32;5.57;;;0.55;;
23990;SDS011;12205;50.600;4.608;2023-08-07T10:53:01;2.42;;;0.50;;
23990;SDS011;12205;50.600;4.608;2023-08-07T10:55:42;3.67;;;0.40;;
23990;SDS011;12205;50.600;4.608;2023-08-07T11:00:51;4.75;;;0.65;;
23990;SDS011;12205;50.600;4.608;2023-08-07T11:03:42;3.08;;;0.63;;
23990;SDS011;12205;50.600;4.608;2023-08-07T11:06:09;5.43;;;0.60;;
23990;SDS011;12205;50.600;4.608;2023-08-07T11:08:37;1.73;;;0.40;;
23990;SDS011;12205;50.600;4.608;2023-08-07T11:11:04;2.42;;;0.40;;
23990;SDS011;12205;50.600;4.608;2023-08-07T11:13:33;2.55;;;0.50;;
23990;SDS011;12205;50.600;4.608;2023-08-07T11:16:01;2.53;;;0.50;;
23990;SDS011;12205;50.600;4.608;2023-08-07T11:18:30;4.03;;;0.52;;
23990;SDS011;12205;50.600;4.608;2023-08-07T11:20:58;3.90;;;0.40;;
23990;SDS011;12205;50.600;4.608;2023-08-07T11:23:26;2.63;;;0.55;;
23990;SDS011;12205;50.600;4.608;2023-08-07T11:25:54;3.45;;;0.65;;
23990;SDS011;12205;50.600;4.608;2023-08-07T11:28:22;3.63;;;0.63;;
23990;SDS011;12205;50.600;4.608;2023-08-07T11:30:50;1.90;;;0.50;;
23990;SDS011;12205;50.600;4.608;2023-08-07T11:33:21;2.08;;;0.40;;
23990;SDS011;12205;50.600;4.608;2023-08-07T11:35:51;2.73;;;0.50;;
23990;SDS011;12205;50.600;4.608;2023-08-07T11:38:31;1.40;;;0.20;;
23990;SDS011;12205;50.600;4.608;2023-08-07T11:43:28;3.67;;;0.68;;
23990;SDS011;12205;50.600;4.608;2023-08-07T11:45:58;4.85;;;0.40;;
23990;SDS011;12205;50.600;4.608;2023-08-07T11:48:29;1.88;;;0.50;;
23990;SDS011;12205;50.600;4.608;2023-08-07T11:50:58;3.53;;;0.40;;
23990;SDS011;12205;50.600;4.608;2023-08-07T11:53:28;3.03;;;0.40;;
23990;SDS011;12205;50.600;4.608;2023-08-07T11:56:00;4.22;;;0.40;;
23990;SDS011;12205;50.600;4.608;2023-08-07T11:58:33;1.50;;;0.50;;
23990;SDS011;12205;50.600;4.608;2023-08-07T12:01:05;1.95;;;0.20;;
23990;SDS011;12205;50.600;4.608;2023-08-07T12:03:37;1.98;;;0.30;;
23990;SDS011;12205;50.600;4.608;2023-08-07T12:06:09;4.40;;;0.38;;
23990;SDS011;12205;50.600;4.608;2023-08-07T12:08:37;1.20;;;0.40;;
23990;SDS011;12205;50.600;4.608;2023-08-07T12:11:06;1.30;;;0.30;;
23990;SDS011;12205;50.600;4.608;2023-08-07T12:13:36;1.73;;;0.32;;
23990;SDS011;12205;50.600;4.608;2023-08-07T12:16:04;2.53;;;0.50;;
23990;SDS011;12205;50.600;4.608;2023-08-07T12:18:33;4.72;;;0.40;;
23990;SDS011;12205;50.600;4.608;2023-08-07T12:21:04;2.35;;;0.40;;
23990;SDS011;12205;50.600;4.608;2023-08-07T12:23:34;4.20;;;0.40;;
23990;SDS011;12205;50.600;4.608;2023-08-07T12:26:03;4.03;;;0.40;;
23990;SDS011;12205;50.600;4.608;2023-08-07T12:28:31;4.70;;;0.60;;
23990;SDS011;12205;50.600;4.608;2023-08-07T12:30:58;4.00;;;0.40;;
23990;SDS011;12205;50.600;4.608;2023-08-07T12:33:25;7.10;;;0.50;;
23990;SDS011;12205;50.600;4.608;2023-08-07T12:35:54;2.42;;;0.50;;
23990;SDS011;12205;50.600;4.608;2023-08-07T12:38:24;1.27;;;0.30;;
23990;SDS011;12205;50.600;4.608;2023-08-07T12:40:51;1.38;;;0.28;;
23990;SDS011;12205;50.600;4.608;2023-08-07T12:43:19;1.25;;;0.22;;
23990;SDS011;12205;50.600;4.608;2023-08-07T12:45:46;3.00;;;0.40;;
23990;SDS011;12205;50.600;4.608;2023-08-07T12:48:13;1.23;;;0.20;;
23990;SDS011;12205;50.600;4.608;2023-08-07T12:50:41;2.53;;;0.30;;
23990;SDS011;12205;50.600;4.608;2023-08-07T12:53:08;2.30;;;0.35;;
23990;SDS011;12205;50.600;4.608;2023-08-07T12:55:36;1.30;;;0.30;;
23990;SDS011;12205;50.600;4.608;2023-08-07T12:58:03;2.08;;;0.30;;
23990;SDS011;12205;50.600;4.608;2023-08-07T13:00:30;1.48;;;0.30;;
23990;SDS011;12205;50.600;4.608;2023-08-07T13:02:57;3.75;;;0.30;;
23990;SDS011;12205;50.600;4.608;2023-08-07T13:05:24;1.25;;;0.20;;
23990;SDS011;12205;50.600;4.608;2023-08-07T13:07:52;3.28;;;0.20;;
23990;SDS011;12205;50.600;4.608;2023-08-07T13:10:21;2.05;;;0.30;;
23990;SDS011;12205;50.600;4.608;2023-08-07T13:12:49;3.17;;;0.30;;
23990;SDS011;12205;50.600;4.608;2023-08-07T13:15:16;3.10;;;0.20;;
23990;SDS011;12205;50.600;4.608;2023-08-07T13:17:44;3.38;;;0.30;;
23990;SDS011;12205;50.600;4.608;2023-08-07T13:20:12;0.98;;;0.20;;
23990;SDS011;12205;50.600;4.608;2023-08-07T13:22:40;3.17;;;0.20;;
23990;SDS011;12205;50.600;4.608;2023-08-07T13:25:10;1.33;;;0.17;;
23990;SDS011;12205;50.600;4.608;2023-08-07T13:27:39;1.23;;;0.10;;
23990;SDS011;12205;50.600;4.608;2023-08-07T13:30:08;1.23;;;0.20;;
23990;SDS011;12205;50.600;4.608;2023-08-07T13:32:36;1.77;;;0.20;;
23990;SDS011;12205;50.600;4.608;2023-08-07T13:35:04;1.15;;;0.30;;
23990;SDS011;12205;50.600;4.608;2023-08-07T13:37:32;1.30;;;0.28;;
23990;SDS011;12205;50.600;4.608;2023-08-07T13:39:59;2.58;;;0.30;;
23990;SDS011;12205;50.600;4.608;2023-08-07T13:42:28;0.45;;;0.20;;
23990;SDS011;12205;50.600;4.608;2023-08-07T13:44:55;1.00;;;0.20;;
23990;SDS011;12205;50.600;4.608;2023-08-07T13:47:23;2.42;;;0.30;;
23990;SDS011;12205;50.600;4.608;2023-08-07T13:49:51;2.95;;;0.20;;
23990;SDS011;12205;50.600;4.608;2023-08-07T13:52:19;2.50;;;0.20;;
23990;SDS011;12205;50.600;4.608;2023-08-07T13:54:46;1.52;;;0.20;;
23990;SDS011;12205;50.600;4.608;2023-08-07T13:57:13;1.30;;;0.20;;
23990;SDS011;12205;50.600;4.608;2023-08-07T13:59:41;1.23;;;0.22;;
23990;SDS011;12205;50.600;4.608;2023-08-07T14:02:08;1.35;;;0.32;;
23990;SDS011;12205;50.600;4.608;2023-08-07T14:04:37;1.63;;;0.20;;
23990;SDS011;12205;50.600;4.608;2023-08-07T14:07:05;2.47;;;0.30;;
23990;SDS011;12205;50.600;4.608;2023-08-07T14:09:32;2.28;;;0.30;;
23990;SDS011;12205;50.600;4.608;2023-08-07T14:11:59;5.20;;;0.30;;
23990;SDS011;12205;50.600;4.608;2023-08-07T14:14:26;4.43;;;0.25;;
23990;SDS011;12205;50.600;4.608;2023-08-07T14:16:53;1.15;;;0.20;;
23990;SDS011;12205;50.600;4.608;2023-08-07T14:19:22;1.88;;;0.20;;
23990;SDS011;12205;50.600;4.608;2023-08-07T14:21:51;4.40;;;0.20;;
23990;SDS011;12205;50.600;4.608;2023-08-07T14:24:18;2.85;;;0.20;;
23990;SDS011;12205;50.600;4.608;2023-08-07T14:26:45;0.95;;;0.20;;
23990;SDS011;12205;50.600;4.608;2023-08-07T14:29:12;4.05;;;0.28;;
23990;SDS011;12205;50.600;4.608;2023-08-07T14:31:40;1.27;;;0.17;;
23990;SDS011;12205;50.600;4.608;2023-08-07T14:34:07;1.60;;;0.20;;
23990;SDS011;12205;50.600;4.608;2023-08-07T14:36:35;3.63;;;0.28;;
23990;SDS011;12205;50.600;4.608;2023-08-07T14:39:03;1.10;;;0.20;;
23990;SDS011;12205;50.600;4.608;2023-08-07T14:41:31;2.75;;;0.30;;
23990;SDS011;12205;50.600;4.608;2023-08-07T14:43:58;2.75;;;0.30;;
23990;SDS011;12205;50.600;4.608;2023-08-07T14:46:25;4.65;;;0.28;;
23990;SDS011;12205;50.600;4.608;2023-08-07T14:48:52;4.88;;;0.30;;
23990;SDS011;12205;50.600;4.608;2023-08-07T14:51:19;3.53;;;0.28;;
23990;SDS011;12205;50.600;4.608;2023-08-07T14:53:46;3.17;;;0.20;;
23990;SDS011;12205;50.600;4.608;2023-08-07T14:56:15;1.42;;;0.20;;
23990;SDS011;12205;50.600;4.608;2023-08-07T14:58:42;5.82;;;0.40;;
23990;SDS011;12205;50.600;4.608;2023-08-07T15:01:09;2.47;;;0.20;;